createdAt,value
2022-10-23T00:00:59.424Z,9.98
2022-10-23T00:03:25.839Z,10.18
2022-10-23T00:05:52.100Z,10.10
2022-10-23T00:08:18.349Z,9.55
2022-10-23T00:10:44.698Z,10.43
2022-10-23T00:13:10.971Z,9.48
2022-10-23T00:15:37.282Z,10.75
2022-10-23T00:18:04.045Z,10.77
2022-10-23T00:20:30.316Z,9.32
2022-10-23T00:22:56.591Z,9.70
2022-10-23T00:25:23.046Z,10.25
2022-10-23T00:27:49.302Z,9.85
2022-10-23T00:30:15.585Z,9.70
2022-10-23T00:32:41.857Z,9.85
2022-10-23T00:35:08.371Z,9.57
2022-10-23T00:37:34.743Z,9.90
2022-10-23T00:40:01.047Z,9.38
2022-10-23T00:42:27.348Z,9.27
2022-10-23T00:45:09.466Z,9.55
2022-10-23T00:47:35.778Z,10.13
2022-10-23T00:50:02.369Z,10.13
2022-10-23T00:52:29.394Z,10.18
2022-10-23T00:54:56.278Z,10.10
2022-10-23T00:57:22.626Z,10.63
2022-10-23T00:59:48.932Z,10.48
2022-10-23T01:02:15.827Z,10.73
2022-10-23T01:04:42.257Z,9.98
2022-10-23T01:07:15.752Z,10.50
2022-10-23T01:09:42.084Z,9.50
2022-10-23T01:12:17.521Z,9.32
2022-10-23T01:14:46.700Z,8.68
2022-10-23T01:17:19.530Z,8.70
2022-10-23T01:19:51.894Z,8.90
2022-10-23T01:22:27.889Z,8.27
2022-10-23T01:29:59.007Z,7.65
2022-10-23T01:32:32.179Z,8.23
2022-10-23T01:37:29.073Z,8.93
2022-10-23T01:40:01.255Z,8.77
2022-10-23T01:42:33.834Z,8.82
2022-10-23T01:45:03.403Z,9.73
2022-10-23T01:47:38.303Z,9.25
2022-10-23T01:50:08.486Z,8.68
2022-10-23T01:52:35.270Z,8.82
2022-10-23T01:55:04.235Z,8.25
2022-10-23T01:57:33.799Z,9.30
2022-10-23T02:00:03.883Z,8.90
2022-10-23T02:02:32.835Z,8.55
2022-10-23T02:05:03.836Z,8.20
2022-10-23T02:07:30.226Z,8.98
2022-10-23T02:12:34.069Z,7.57
2022-10-23T02:15:09.219Z,8.90
2022-10-23T02:17:51.112Z,7.70
2022-10-23T02:20:23.828Z,7.85
2022-10-23T02:23:05.766Z,7.60
2022-10-23T02:25:45.998Z,7.40
2022-10-23T02:28:16.098Z,6.97
2022-10-23T02:30:46.274Z,7.97
2022-10-23T02:33:13.124Z,7.93
2022-10-23T02:35:39.961Z,8.82
2022-10-23T02:38:33.538Z,9.27
2022-10-23T02:41:20.210Z,8.27
2022-10-23T02:44:05.219Z,8.95
2022-10-23T02:46:50.251Z,8.10
2022-10-23T02:49:28.917Z,9.13
2022-10-23T02:52:09.125Z,8.82
2022-10-23T02:54:41.658Z,8.95
2022-10-23T02:57:14.096Z,8.25
2022-10-23T02:59:44.820Z,9.07
2022-10-23T03:02:11.209Z,8.65
2022-10-23T03:04:39.074Z,7.53
2022-10-23T03:07:05.591Z,7.70
2022-10-23T03:09:31.892Z,7.10
2022-10-23T03:11:58.214Z,8.23
2022-10-23T03:14:24.491Z,7.47
2022-10-23T03:16:50.789Z,7.47
2022-10-23T03:19:17.243Z,7.57
2022-10-23T03:21:43.510Z,8.18
2022-10-23T03:24:09.775Z,8.52
2022-10-23T03:26:40.887Z,8.02
2022-10-23T03:29:07.194Z,7.90
2022-10-23T03:31:48.999Z,8.18
2022-10-23T03:34:15.609Z,8.82
2022-10-23T03:36:42.475Z,10.75
2022-10-23T03:39:10.015Z,11.23
2022-10-23T03:41:38.663Z,11.57
2022-10-23T03:46:38.443Z,13.32
2022-10-23T03:49:05.613Z,13.30
2022-10-23T03:51:31.890Z,11.25
2022-10-23T03:53:58.229Z,13.02
2022-10-23T03:56:24.832Z,13.35
2022-10-23T03:58:51.182Z,13.90
2022-10-23T04:01:17.504Z,13.70
2022-10-23T04:03:45.353Z,12.80
2022-10-23T04:06:11.643Z,13.30
2022-10-23T04:08:38.648Z,13.57
2022-10-23T04:11:13.902Z,15.60
2022-10-23T04:13:45.512Z,14.60
2022-10-23T04:18:40.010Z,14.63
2022-10-23T04:21:08.744Z,14.80
2022-10-23T04:23:35.047Z,13.60
2022-10-23T04:26:01.598Z,14.25
2022-10-23T04:28:28.463Z,12.57
2022-10-23T04:30:54.866Z,13.15
2022-10-23T04:33:21.301Z,13.15
2022-10-23T04:35:50.059Z,13.00
2022-10-23T04:38:16.592Z,12.35
2022-10-23T04:40:43.447Z,13.93
2022-10-23T04:43:09.741Z,13.25
2022-10-23T04:45:39.481Z,14.05
2022-10-23T04:48:05.914Z,13.77
2022-10-23T04:50:57.500Z,15.32
2022-10-23T04:53:42.677Z,13.63
2022-10-23T04:56:25.631Z,13.15
2022-10-23T04:59:02.568Z,13.10
2022-10-23T05:01:30.090Z,14.05
2022-10-23T05:03:57.718Z,13.60
2022-10-23T05:06:24.167Z,13.23
2022-10-23T05:09:10.480Z,11.48
2022-10-23T05:11:50.743Z,12.27
2022-10-23T05:14:20.647Z,12.32
2022-10-23T05:16:53.894Z,13.55
2022-10-23T05:19:42.138Z,11.55
2022-10-23T05:22:08.899Z,11.95
2022-10-23T05:24:52.084Z,13.00
2022-10-23T05:27:22.136Z,12.82
2022-10-23T05:29:50.724Z,11.93
2022-10-23T05:34:47.746Z,11.52
2022-10-23T05:42:11.731Z,11.55
2022-10-23T05:44:39.446Z,10.73
2022-10-23T05:47:36.398Z,12.00
2022-10-23T05:50:25.471Z,12.38
2022-10-23T05:53:23.887Z,11.55
2022-10-23T05:56:08.853Z,12.10
2022-10-23T05:58:42.859Z,12.05
2022-10-23T06:01:31.873Z,11.40
2022-10-23T06:04:03.159Z,11.10
2022-10-23T06:06:54.723Z,11.55
2022-10-23T06:09:21.070Z,12.02
2022-10-23T06:11:48.941Z,11.90
2022-10-23T06:14:20.101Z,11.05
2022-10-23T06:16:48.115Z,11.50
2022-10-23T06:21:41.967Z,11.23
2022-10-23T06:24:11.140Z,11.88
2022-10-23T06:26:42.166Z,12.18
2022-10-23T06:29:17.801Z,11.83
2022-10-23T06:31:44.275Z,11.52
2022-10-23T06:34:12.240Z,11.07
2022-10-23T06:36:38.891Z,11.27
2022-10-23T06:39:14.927Z,11.00
2022-10-23T06:41:59.274Z,10.63
2022-10-23T06:44:44.238Z,11.30
2022-10-23T06:47:12.945Z,11.50
2022-10-23T06:49:57.835Z,10.77
2022-10-23T06:52:42.075Z,11.05
2022-10-23T06:55:10.893Z,10.90
2022-10-23T06:57:38.204Z,11.55
2022-10-23T07:00:05.538Z,11.38
2022-10-23T07:02:41.461Z,11.00
2022-10-23T07:05:11.319Z,10.50
2022-10-23T07:07:39.942Z,10.95
2022-10-23T07:12:44.112Z,10.50
2022-10-23T07:20:22.796Z,9.50
2022-10-23T07:22:50.800Z,10.38
2022-10-23T07:25:24.771Z,9.43
2022-10-23T07:27:52.465Z,10.15
2022-10-23T07:30:18.818Z,10.10
2022-10-23T07:32:50.585Z,9.75
2022-10-23T07:35:40.966Z,9.82
2022-10-23T07:38:13.641Z,9.63
2022-10-23T07:40:44.442Z,9.57
2022-10-23T07:43:13.927Z,9.68
2022-10-23T07:45:40.239Z,8.60
2022-10-23T07:48:18.075Z,8.93
2022-10-23T07:50:58.323Z,9.18
2022-10-23T07:53:25.782Z,9.63
2022-10-23T07:55:58.955Z,8.32
2022-10-23T07:58:32.168Z,9.65
2022-10-23T08:01:13.073Z,8.15
2022-10-23T08:03:39.946Z,8.35
2022-10-23T08:06:06.790Z,7.90
2022-10-23T08:08:33.570Z,7.80
2022-10-23T08:11:02.918Z,8.43
2022-10-23T08:13:35.333Z,8.32
2022-10-23T08:16:05.332Z,7.70
2022-10-23T08:18:51.638Z,7.00
2022-10-23T08:21:19.098Z,8.07
2022-10-23T08:23:46.149Z,7.15
2022-10-23T08:26:12.624Z,7.53
2022-10-23T08:28:38.952Z,7.68
2022-10-23T08:31:13.190Z,6.95
2022-10-23T08:33:41.296Z,7.10
2022-10-23T08:36:16.036Z,7.15
2022-10-23T08:38:42.329Z,7.00
2022-10-23T08:41:32.158Z,6.97
2022-10-23T08:44:35.293Z,7.25
2022-10-23T08:47:09.370Z,6.88
2022-10-23T08:50:12.484Z,6.47
2022-10-23T08:52:46.876Z,6.45
2022-10-23T08:55:23.265Z,6.57
2022-10-23T09:00:17.829Z,6.95
2022-10-23T09:02:48.499Z,6.40
2022-10-23T09:05:21.210Z,5.80
2022-10-23T09:08:06.124Z,6.07
2022-10-23T09:10:42.514Z,6.00
2022-10-23T09:13:27.601Z,5.97
2022-10-23T09:16:01.690Z,5.37
2022-10-23T09:18:27.966Z,6.43
2022-10-23T09:20:54.267Z,6.20
2022-10-23T09:23:24.240Z,6.45
2022-10-23T09:25:55.396Z,5.95
2022-10-23T09:28:23.113Z,5.82
2022-10-23T09:30:49.960Z,6.13
2022-10-23T09:33:16.249Z,5.38
2022-10-23T09:36:13.644Z,5.90
2022-10-23T09:38:48.090Z,5.03
2022-10-23T09:41:17.362Z,5.57
2022-10-23T09:43:43.817Z,5.20
2022-10-23T09:48:39.187Z,5.10
2022-10-23T09:51:16.564Z,5.15
2022-10-23T09:53:56.893Z,5.35
2022-10-23T09:56:24.727Z,4.57
2022-10-23T09:59:09.990Z,5.53
2022-10-23T10:01:46.071Z,5.45
2022-10-23T10:04:40.724Z,4.95
2022-10-23T10:07:17.670Z,5.13
2022-10-23T10:09:43.951Z,5.07
2022-10-23T10:12:24.263Z,4.78
2022-10-23T10:15:07.064Z,5.05
2022-10-23T10:17:53.650Z,4.18
2022-10-23T10:20:29.168Z,4.32
2022-10-23T10:23:07.683Z,4.83
2022-10-23T10:25:48.544Z,4.15
2022-10-23T10:28:29.591Z,4.53
2022-10-23T10:30:55.839Z,4.45
2022-10-23T10:33:26.213Z,4.70
2022-10-23T10:35:57.598Z,4.45
2022-10-23T10:38:42.557Z,4.60
2022-10-23T10:41:18.126Z,3.95
2022-10-23T10:43:52.310Z,4.15
2022-10-23T10:46:18.573Z,4.15
2022-10-23T10:49:23.293Z,4.30
2022-10-23T10:52:27.316Z,4.60
2022-10-23T10:54:56.310Z,4.22
2022-10-23T10:57:31.050Z,4.13
2022-10-23T11:00:00.711Z,4.70
2022-10-23T11:02:33.874Z,4.38
2022-10-23T11:05:00.150Z,4.65
2022-10-23T11:07:38.085Z,3.65
2022-10-23T11:10:13.446Z,3.90
2022-10-23T11:12:39.897Z,3.80
2022-10-23T11:17:38.522Z,3.50
2022-10-23T11:20:16.826Z,3.90
2022-10-23T11:22:48.141Z,3.53
2022-10-23T11:25:17.481Z,3.33
2022-10-23T11:27:52.942Z,3.25
2022-10-23T11:30:19.230Z,3.65
2022-10-23T11:32:57.501Z,3.40
2022-10-23T11:35:38.890Z,3.78
2022-10-23T11:38:19.049Z,3.65
2022-10-23T11:43:30.984Z,3.17
2022-10-23T11:45:57.495Z,3.55
2022-10-23T11:50:51.875Z,3.25
2022-10-23T11:53:38.415Z,3.10
2022-10-23T11:56:04.798Z,3.00
2022-10-23T12:01:05.652Z,3.17
2022-10-23T12:03:39.603Z,3.15
2022-10-23T12:06:06.321Z,3.78
2022-10-23T12:08:37.436Z,2.83
2022-10-23T12:11:03.805Z,3.30
2022-10-23T12:15:59.957Z,3.33
2022-10-23T12:18:27.570Z,3.25
2022-10-23T12:20:54.025Z,3.42
2022-10-23T12:23:23.099Z,3.17
2022-10-23T12:25:49.365Z,3.70
2022-10-23T12:28:27.342Z,3.65
2022-10-23T12:30:57.707Z,3.03
2022-10-23T12:33:34.426Z,2.78
2022-10-23T12:36:16.936Z,3.00
2022-10-23T12:38:47.285Z,2.53
2022-10-23T12:41:23.065Z,3.05
2022-10-23T12:44:00.533Z,2.70
2022-10-23T12:46:27.042Z,2.75
2022-10-23T12:48:56.853Z,2.88
2022-10-23T12:51:33.059Z,2.88
2022-10-23T12:53:59.889Z,2.58
2022-10-23T12:56:28.607Z,3.15
2022-10-23T12:59:00.527Z,3.08
2022-10-23T13:01:30.987Z,2.42
2022-10-23T13:04:01.720Z,2.50
2022-10-23T13:06:28.642Z,2.20
2022-10-23T13:08:55.055Z,2.55
2022-10-23T13:11:34.131Z,2.20
2022-10-23T13:14:10.623Z,2.40
2022-10-23T13:16:36.990Z,2.05
2022-10-23T13:19:03.589Z,2.05
2022-10-23T13:23:56.458Z,2.20
2022-10-23T13:28:49.202Z,2.65
2022-10-23T13:31:15.446Z,2.45
2022-10-23T13:33:46.399Z,2.10
2022-10-23T13:36:16.579Z,2.40
2022-10-23T13:38:46.746Z,2.60
2022-10-23T13:41:14.971Z,2.15
2022-10-23T13:43:41.783Z,2.58
2022-10-23T13:46:15.319Z,2.45
2022-10-23T13:48:41.719Z,2.55
2022-10-23T13:53:34.242Z,2.65
2022-10-23T13:58:26.773Z,2.38
2022-10-23T14:03:20.278Z,2.20
2022-10-23T14:05:46.557Z,2.47
2022-10-23T14:08:12.831Z,2.20
2022-10-23T14:10:39.132Z,2.78
2022-10-23T14:13:05.489Z,2.60
2022-10-23T14:17:59.514Z,9.65
2022-10-23T14:20:27.902Z,2.95
2022-10-23T14:22:54.371Z,2.70
2022-10-23T14:27:46.929Z,2.90
2022-10-23T14:32:39.720Z,2.33
2022-10-23T14:37:33.746Z,2.40
2022-10-23T14:40:00.143Z,2.67
2022-10-23T14:44:56.832Z,2.78
2022-10-23T14:49:51.894Z,2.70
2022-10-23T14:52:18.160Z,2.80
2022-10-23T14:54:44.412Z,2.80
2022-10-23T14:57:12.340Z,2.88
2022-10-23T14:59:38.617Z,3.10
2022-10-23T15:02:04.973Z,3.00
2022-10-23T15:06:57.521Z,3.55
2022-10-23T15:09:25.141Z,3.30
2022-10-23T15:11:51.517Z,3.00
2022-10-23T15:16:44.092Z,2.97
2022-10-23T15:19:15.189Z,3.30
2022-10-23T15:21:44.664Z,2.92
2022-10-23T15:24:10.921Z,3.08
2022-10-23T15:26:38.305Z,3.22
2022-10-23T15:29:05.339Z,3.22
2022-10-23T15:31:37.553Z,3.30
2022-10-23T15:34:04.790Z,3.25
2022-10-23T15:36:31.281Z,2.90
2022-10-23T15:41:27.906Z,2.85
2022-10-23T15:43:54.253Z,3.30
2022-10-23T15:46:20.528Z,3.25
2022-10-23T15:48:46.898Z,3.60
2022-10-23T15:56:05.806Z,2.80
2022-10-23T16:00:59.040Z,2.83
2022-10-23T16:03:25.404Z,3.30
2022-10-23T16:05:51.665Z,3.67
2022-10-23T16:08:17.928Z,3.30
2022-10-23T16:10:44.192Z,3.08
2022-10-23T16:13:10.464Z,3.03
2022-10-23T16:18:03.362Z,3.15
2022-10-23T16:25:22.149Z,3.33
2022-10-23T16:32:42.285Z,3.30
2022-10-23T16:35:12.310Z,3.25
2022-10-23T16:37:52.564Z,3.40
2022-10-23T16:40:20.622Z,3.22
2022-10-23T16:43:05.408Z,3.30
2022-10-23T16:45:37.767Z,3.63
2022-10-23T16:48:04.363Z,3.70
2022-10-23T16:50:30.743Z,3.72
2022-10-23T16:52:57.044Z,3.70
2022-10-23T16:55:23.314Z,3.38
2022-10-23T16:57:49.652Z,3.70
2022-10-23T17:00:16.065Z,3.50
2022-10-23T17:05:08.942Z,30.92
2022-10-23T17:07:35.788Z,3.45
2022-10-23T17:10:02.083Z,3.33
2022-10-23T17:12:28.345Z,3.80
2022-10-23T17:14:54.624Z,3.45
2022-10-23T17:17:20.950Z,4.15
2022-10-23T17:19:47.266Z,3.35
2022-10-23T17:22:14.284Z,3.13
2022-10-23T17:24:41.155Z,2.88
2022-10-23T17:27:07.486Z,3.60
2022-10-23T17:29:33.898Z,3.40
2022-10-23T17:34:26.569Z,4.00
2022-10-23T17:36:54.017Z,8.95
2022-10-23T17:39:22.027Z,4.25
2022-10-23T17:41:48.655Z,3.95
2022-10-23T17:44:14.961Z,3.30
2022-10-23T17:46:41.286Z,3.50
2022-10-23T17:49:07.758Z,3.13
2022-10-23T17:54:01.327Z,2.75
2022-10-23T17:56:29.061Z,2.67
2022-10-23T17:58:58.938Z,3.10
2022-10-23T18:01:26.406Z,3.40
2022-10-23T18:03:53.591Z,2.95
2022-10-23T18:06:24.496Z,2.97
2022-10-23T18:08:54.367Z,3.10
2022-10-23T18:11:22.157Z,2.80
2022-10-23T18:13:48.577Z,3.03
2022-10-23T18:18:42.027Z,3.20
2022-10-23T18:21:08.491Z,2.80
2022-10-23T18:26:01.751Z,3.38
2022-10-23T18:28:28.556Z,3.40
2022-10-23T18:30:56.956Z,3.28
2022-10-23T18:33:23.725Z,3.17
2022-10-23T18:40:42.986Z,3.47
2022-10-23T18:43:14.825Z,3.22
2022-10-23T18:45:42.333Z,2.90
2022-10-23T18:48:08.623Z,3.22
2022-10-23T18:50:36.079Z,6.20
2022-10-23T18:53:02.445Z,3.40
2022-10-23T18:55:28.815Z,3.50
2022-10-23T18:57:55.186Z,3.42
2022-10-23T19:00:21.467Z,3.33
2022-10-23T19:02:52.124Z,3.28
2022-10-23T19:05:19.353Z,3.38
2022-10-23T19:07:45.889Z,3.63
2022-10-23T19:10:15.765Z,3.78
2022-10-23T19:12:42.603Z,4.00
2022-10-23T19:15:09.455Z,4.10
2022-10-23T19:20:06.059Z,3.78
2022-10-23T19:22:33.663Z,3.80
2022-10-23T19:25:05.022Z,3.50
2022-10-23T19:27:31.351Z,4.80
2022-10-23T19:30:03.147Z,3.58
2022-10-23T19:32:29.423Z,3.90
2022-10-23T19:34:55.789Z,4.35
2022-10-23T19:37:23.455Z,3.90
2022-10-23T19:39:49.711Z,4.05
2022-10-23T19:42:16.042Z,4.38
2022-10-23T19:44:42.414Z,3.90
2022-10-23T19:47:08.814Z,3.60
2022-10-23T19:49:35.074Z,3.80
2022-10-23T19:52:01.410Z,3.50
2022-10-23T19:54:27.675Z,4.03
2022-10-23T19:56:53.987Z,3.92
2022-10-23T19:59:20.355Z,4.10
2022-10-23T20:01:48.877Z,3.78
2022-10-23T20:04:16.215Z,4.35
2022-10-23T20:06:42.490Z,4.10
2022-10-23T20:09:09.779Z,4.10
2022-10-23T20:11:36.954Z,3.63
2022-10-23T20:14:03.389Z,3.63
2022-10-23T20:16:31.132Z,3.47
2022-10-23T20:18:57.930Z,2.67
2022-10-23T20:21:24.462Z,2.70
2022-10-23T20:28:48.309Z,2.00
2022-10-23T20:31:15.245Z,1.90
2022-10-23T20:33:42.203Z,1.90
2022-10-23T20:36:09.849Z,1.35
2022-10-23T20:38:36.403Z,2.00
2022-10-23T20:43:33.623Z,1.80
2022-10-23T20:46:07.180Z,1.50
2022-10-23T20:48:37.166Z,1.33
2022-10-23T20:51:04.418Z,1.33
2022-10-23T20:53:30.791Z,1.65
2022-10-23T20:55:57.062Z,1.40
2022-10-23T20:58:23.460Z,1.30
2022-10-23T21:03:24.526Z,1.30
2022-10-23T21:05:54.688Z,1.40
2022-10-23T21:08:21.145Z,1.35
2022-10-23T21:10:47.501Z,1.20
2022-10-23T21:13:13.785Z,1.20
2022-10-23T21:15:40.075Z,1.40
2022-10-23T21:18:26.489Z,1.38
2022-10-23T21:21:00.344Z,1.33
2022-10-23T21:25:52.836Z,1.48
2022-10-23T21:28:20.967Z,1.08
2022-10-23T21:30:47.824Z,1.40
2022-10-23T21:33:14.650Z,1.00
2022-10-23T21:35:52.198Z,1.17
2022-10-23T21:38:51.675Z,1.27
2022-10-23T21:41:22.281Z,1.60
2022-10-23T21:43:51.668Z,1.10
2022-10-23T21:46:18.093Z,1.08
2022-10-23T21:48:44.595Z,1.60
2022-10-23T21:58:30.809Z,1.10
2022-10-23T22:00:57.108Z,1.35
2022-10-23T22:05:50.082Z,1.33
2022-10-23T22:08:16.355Z,1.50
2022-10-23T22:10:42.645Z,1.00
2022-10-23T22:13:08.982Z,1.60
2022-10-23T22:15:35.289Z,1.33
2022-10-23T22:18:01.599Z,1.20
2022-10-23T22:20:27.854Z,1.50
2022-10-23T22:22:54.137Z,1.40
2022-10-23T22:25:20.431Z,1.60
2022-10-23T22:27:46.973Z,1.60
2022-10-23T22:30:13.431Z,1.85
2022-10-23T22:32:39.747Z,1.75
2022-10-23T22:35:06.745Z,1.88
2022-10-23T22:40:00.119Z,2.00
2022-10-23T22:42:26.411Z,2.38
2022-10-23T22:44:52.665Z,2.10
2022-10-23T22:47:18.978Z,1.95
2022-10-23T22:49:45.257Z,2.20
2022-10-23T22:52:11.525Z,2.00
2022-10-23T22:54:37.854Z,1.58
2022-10-23T22:57:04.158Z,2.08
2022-10-23T22:59:30.414Z,1.80
2022-10-23T23:01:56.706Z,1.73
2022-10-23T23:04:39.416Z,1.77
2022-10-23T23:07:09.992Z,2.10
2022-10-23T23:09:37.699Z,1.70
2022-10-23T23:12:04.243Z,2.13
2022-10-23T23:21:49.658Z,2.03
2022-10-23T23:29:08.368Z,1.95
2022-10-23T23:31:34.655Z,2.03
2022-10-23T23:34:01.017Z,2.10
2022-10-23T23:36:27.554Z,2.20
2022-10-23T23:58:24.395Z,2.55
